aviador You're here:

GCRR Decoded Metar

LANZAROTE in SPAIN
Report Time2017-12-18 08:30:00
UTC Time2017-12-18 09:05:11
Flight Rules vfr VFR
Wind030° at 10 kt
W.Decomp.*RWY 03: 10.0 kt HW 0.9 kt RCW
W.Rank030° ranks 5
Current wind is below 030° avg. (11.1)
Visibility9999 m
Phenomena:N/A
Clouds:Few 025 Hf
Expected CloudBase > 1,600 ft AGL from Temp-Dew spread
CeilingNone
Temp16°C (ISA +1)
Dew Point12°C (77% RH)
AAT13.0°C
QNH1024 hPa
Density Alt98 ft
Elevation131 ft
Report Wrong Elevation
Raw Report
GCRR 180830Z 03010KT 9999 FEW025 16/12 Q1024=

Extra information for GCRR:More info

Metar Taf Metar & Taf Last 4 Metars F.Rules Stats Wind Profile Meteogram Temp Stats Airport Information Weather charts Add Link Nearby VenuesMetar ALERT Operation Metar Decoded Social comments